createdAt,value
2018-01-07T00:01:40.318Z,29.37
2018-01-07T00:04:08.868Z,30.77
2018-01-07T00:06:37.580Z,37.57
2018-01-07T00:09:06.268Z,35.00
2018-01-07T00:11:34.916Z,30.00
2018-01-07T00:14:03.637Z,32.47
2018-01-07T00:16:32.432Z,33.13
2018-01-07T00:19:01.118Z,31.33
2018-01-07T00:21:29.757Z,32.00
2018-01-07T00:23:59.253Z,34.20
2018-01-07T00:26:28.591Z,36.13
2018-01-07T00:28:57.289Z,36.40
2018-01-07T00:31:26.083Z,41.43
2018-01-07T00:33:54.721Z,40.13
2018-01-07T00:36:24.175Z,49.00
2018-01-07T00:38:52.860Z,48.67
2018-01-07T00:41:21.638Z,38.13
2018-01-07T00:43:50.325Z,43.40
2018-01-07T00:46:19.121Z,43.47
2018-01-07T00:48:47.808Z,42.30
2018-01-07T00:51:16.446Z,34.07
2018-01-07T00:53:46.039Z,34.23
2018-01-07T00:56:15.499Z,34.60
2018-01-07T00:58:44.086Z,32.33
2018-01-07T01:01:12.872Z,29.90
2018-01-07T01:03:41.556Z,30.90
2018-01-07T01:06:10.136Z,34.50
2018-01-07T01:08:38.873Z,36.57
2018-01-07T01:11:08.316Z,36.97
2018-01-07T01:13:37.012Z,36.07
2018-01-07T01:16:05.808Z,37.20
2018-01-07T01:18:34.493Z,34.83
2018-01-07T01:21:03.071Z,36.27
2018-01-07T01:23:31.866Z,37.40
2018-01-07T01:26:00.551Z,40.50
2018-01-07T01:28:29.100Z,42.63
2018-01-07T01:30:57.829Z,60.13
2018-01-07T01:33:26.500Z,70.00
2018-01-07T01:35:55.185Z,71.10
2018-01-07T01:38:24.136Z,57.97
2018-01-07T01:40:52.870Z,54.03
2018-01-07T01:43:21.593Z,46.03
2018-01-07T01:45:51.413Z,53.90
2018-01-07T01:48:20.875Z,44.97
2018-01-07T01:50:49.546Z,31.27
2018-01-07T01:53:18.291Z,31.83
2018-01-07T01:55:53.030Z,30.67
2018-01-07T01:58:22.726Z,31.57
2018-01-07T02:00:52.181Z,32.70
2018-01-07T02:03:20.869Z,36.07
2018-01-07T02:05:49.747Z,33.93
2018-01-07T02:08:18.447Z,40.40
2018-01-07T02:10:47.189Z,37.00
2018-01-07T02:13:16.279Z,41.27
2018-01-07T02:15:45.733Z,62.50
2018-01-07T02:18:14.420Z,59.70
2018-01-07T02:20:43.160Z,52.93
2018-01-07T02:23:11.889Z,50.53
2018-01-07T02:25:40.686Z,52.47
2018-01-07T02:28:09.568Z,55.77
2018-01-07T02:30:38.364Z,57.27
2018-01-07T02:33:07.051Z,46.83
2018-01-07T02:35:35.835Z,40.80
2018-01-07T02:38:04.509Z,42.90
2018-01-07T02:40:33.207Z,37.63
2018-01-07T02:43:02.101Z,33.73
2018-01-07T02:45:30.787Z,34.27
2018-01-07T02:47:59.472Z,33.53
2018-01-07T02:50:28.355Z,34.13
2018-01-07T02:52:56.946Z,32.97
2018-01-07T02:55:25.632Z,36.07
2018-01-07T02:57:54.721Z,35.33
2018-01-07T03:00:23.406Z,39.27
2018-01-07T03:02:52.036Z,36.70
2018-01-07T03:05:21.655Z,33.50
2018-01-07T03:07:50.385Z,41.53
2018-01-07T03:10:19.039Z,40.40
2018-01-07T03:12:47.756Z,44.43
2018-01-07T03:15:16.401Z,44.70
2018-01-07T03:17:45.128Z,42.03
2018-01-07T03:20:14.225Z,38.10
2018-01-07T03:22:42.917Z,38.33
2018-01-07T03:25:11.603Z,42.30
2018-01-07T03:27:40.486Z,38.93
2018-01-07T03:30:09.131Z,41.63
2018-01-07T03:32:37.858Z,38.40
2018-01-07T03:35:06.857Z,38.30
2018-01-07T03:37:35.437Z,39.13
2018-01-07T03:40:04.152Z,40.00
2018-01-07T03:42:33.694Z,40.47
2018-01-07T03:45:02.418Z,40.13
2018-01-07T03:47:31.004Z,41.03
2018-01-07T03:49:59.697Z,39.50
2018-01-07T03:52:28.264Z,38.30
2018-01-07T03:54:56.908Z,37.80
2018-01-07T03:57:25.638Z,37.27
2018-01-07T03:59:54.293Z,34.03
2018-01-07T04:02:23.009Z,40.27
2018-01-07T04:04:51.696Z,40.10
2018-01-07T04:07:20.393Z,39.83
2018-01-07T04:09:49.067Z,40.43
2018-01-07T04:12:17.753Z,39.53
2018-01-07T04:14:46.439Z,46.40
2018-01-07T04:17:15.333Z,56.03
2018-01-07T04:19:44.309Z,65.07
2018-01-07T04:22:13.012Z,54.97
2018-01-07T04:24:41.698Z,49.73
2018-01-07T04:27:10.482Z,50.53
2018-01-07T04:29:39.168Z,54.27
2018-01-07T04:32:07.755Z,48.83
2018-01-07T04:34:36.689Z,42.13
2018-01-07T04:37:06.108Z,47.37
2018-01-07T04:39:34.734Z,35.77
2018-01-07T04:42:03.351Z,35.63
2018-01-07T04:44:32.061Z,33.40
2018-01-07T04:47:00.792Z,37.47
2018-01-07T04:49:29.576Z,39.47
2018-01-07T04:51:58.164Z,54.83
2018-01-07T04:54:26.850Z,57.13
2018-01-07T04:56:55.633Z,51.33
2018-01-07T04:59:24.266Z,38.20
2018-01-07T05:01:53.681Z,31.70
2018-01-07T05:04:22.802Z,31.67
2018-01-07T05:06:51.507Z,32.37
2018-01-07T05:09:20.099Z,32.30
2018-01-07T05:11:48.879Z,37.13
2018-01-07T05:14:17.522Z,40.07
2018-01-07T05:16:46.251Z,37.57
2018-01-07T05:19:15.404Z,39.87
2018-01-07T05:21:44.852Z,46.43
2018-01-07T05:24:13.537Z,47.23
2018-01-07T05:26:42.531Z,46.17
2018-01-07T05:29:11.216Z,44.90
2018-01-07T05:31:39.901Z,42.77
2018-01-07T05:34:08.735Z,42.47
2018-01-07T05:36:38.099Z,53.27
2018-01-07T05:39:06.746Z,48.43
2018-01-07T05:41:35.569Z,61.23
2018-01-07T05:44:04.210Z,53.40
2018-01-07T05:46:32.941Z,55.43
2018-01-07T05:49:01.634Z,47.90
2018-01-07T05:51:30.313Z,46.93
2018-01-07T05:53:58.955Z,43.57
2018-01-07T05:56:27.949Z,45.27
2018-01-07T05:58:56.675Z,39.00
2018-01-07T06:01:25.412Z,33.17
2018-01-07T06:03:54.876Z,30.33
2018-01-07T06:06:23.446Z,34.77
2018-01-07T06:08:52.131Z,26.30
2018-01-07T06:11:21.103Z,26.43
2018-01-07T06:13:49.772Z,24.83
2018-01-07T06:16:18.496Z,27.73
2018-01-07T06:18:47.458Z,29.23
2018-01-07T06:21:16.175Z,26.13
2018-01-07T06:23:44.862Z,23.77
2018-01-07T06:26:13.657Z,25.33
2018-01-07T06:28:42.324Z,27.60
2018-01-07T06:31:10.966Z,21.80
2018-01-07T06:33:40.636Z,21.87
2018-01-07T06:36:09.184Z,21.43
2018-01-07T06:38:37.897Z,27.63
2018-01-07T06:41:06.892Z,27.97
2018-01-07T06:43:35.534Z,26.57
2018-01-07T06:46:04.262Z,24.63
2018-01-07T06:48:33.058Z,22.37
2018-01-07T06:51:01.633Z,36.40
2018-01-07T06:53:30.280Z,34.90
2018-01-07T06:55:59.321Z,28.50
2018-01-07T06:58:27.999Z,38.43
2018-01-07T07:00:56.684Z,51.07
2018-01-07T07:03:25.373Z,63.40
2018-01-07T07:05:53.959Z,67.00
2018-01-07T07:08:22.742Z,62.10
2018-01-07T07:10:51.681Z,68.00
2018-01-07T07:13:21.146Z,82.40
2018-01-07T07:15:49.786Z,70.40
2018-01-07T07:18:18.883Z,72.77
2018-01-07T07:20:47.609Z,46.73
2018-01-07T07:23:16.294Z,36.20
2018-01-07T07:25:45.288Z,43.07
2018-01-07T07:28:13.973Z,49.07
2018-01-07T07:30:42.646Z,30.00
2018-01-07T07:33:11.246Z,28.60
2018-01-07T07:35:39.932Z,33.87
2018-01-07T07:38:08.571Z,25.73
2018-01-07T07:40:38.067Z,26.17
2018-01-07T07:43:06.801Z,36.83
2018-01-07T07:45:35.424Z,62.67
2018-01-07T07:48:05.047Z,52.37
2018-01-07T07:50:33.781Z,23.40
2018-01-07T07:53:02.432Z,31.97
2018-01-07T07:55:31.196Z,47.93
2018-01-07T07:58:00.662Z,43.47
2018-01-07T08:00:29.208Z,51.80
2018-01-07T08:02:58.277Z,45.40
2018-01-07T08:05:27.739Z,38.40
2018-01-07T08:07:56.425Z,38.87
2018-01-07T08:10:25.381Z,43.73
2018-01-07T08:12:54.103Z,43.77
2018-01-07T08:15:22.743Z,42.93
2018-01-07T08:17:51.685Z,42.77
2018-01-07T08:20:20.328Z,30.47
2018-01-07T08:22:49.056Z,33.00
2018-01-07T08:25:17.990Z,35.30
2018-01-07T08:27:47.308Z,34.67
2018-01-07T08:30:16.024Z,40.40
2018-01-07T08:32:45.821Z,37.80
2018-01-07T08:35:15.331Z,36.00
2018-01-07T08:37:43.905Z,37.37
2018-01-07T08:40:12.643Z,31.67
2018-01-07T08:42:42.101Z,26.57
2018-01-07T08:45:10.824Z,26.10
2018-01-07T08:47:40.493Z,23.23
2018-01-07T08:50:09.179Z,20.70
2018-01-07T08:52:37.767Z,20.00
2018-01-07T08:55:06.550Z,19.77
2018-01-07T08:57:35.236Z,23.13
2018-01-07T09:00:03.824Z,26.73
2018-01-07T09:02:32.816Z,27.13
2018-01-07T09:05:01.502Z,24.27
2018-01-07T09:07:30.080Z,25.60
2018-01-07T09:09:58.973Z,25.57
2018-01-07T09:12:27.658Z,31.80
2018-01-07T09:14:56.344Z,31.60
2018-01-07T09:17:25.140Z,33.67
2018-01-07T09:19:53.832Z,32.60
2018-01-07T09:22:22.404Z,31.37
2018-01-07T09:24:51.196Z,28.83
2018-01-07T09:27:19.833Z,28.53
2018-01-07T09:29:49.285Z,25.90
2018-01-07T09:32:18.176Z,29.10
2018-01-07T09:34:46.862Z,28.30
2018-01-07T09:37:15.649Z,26.90
2018-01-07T09:39:44.401Z,26.87
2018-01-07T09:42:13.117Z,26.80
2018-01-07T09:44:41.764Z,24.67
2018-01-07T09:47:10.495Z,24.90
2018-01-07T09:49:39.174Z,24.33
2018-01-07T09:52:07.761Z,22.97
2018-01-07T09:54:36.655Z,24.93
2018-01-07T09:57:05.441Z,20.27
2018-01-07T09:59:34.121Z,21.60
2018-01-07T10:02:03.188Z,20.97
2018-01-07T10:04:31.907Z,20.93
2018-01-07T10:07:00.591Z,21.73
2018-01-07T10:09:29.541Z,20.93
2018-01-07T10:11:58.269Z,22.07
2018-01-07T10:14:26.856Z,22.20
2018-01-07T10:16:55.948Z,21.73
2018-01-07T10:19:24.635Z,22.67
2018-01-07T10:21:53.224Z,22.77
2018-01-07T10:24:21.925Z,21.33
2018-01-07T10:26:51.364Z,21.90
2018-01-07T10:29:20.860Z,21.47
2018-01-07T10:31:50.377Z,22.53
2018-01-07T10:34:19.108Z,19.77
2018-01-07T10:36:47.793Z,19.77
2018-01-07T10:39:16.884Z,17.87
2018-01-07T10:41:45.570Z,17.93
2018-01-07T10:44:14.257Z,16.73
2018-01-07T10:46:43.052Z,13.97
2018-01-07T10:49:11.608Z,12.43
2018-01-07T10:51:40.218Z,13.57
2018-01-07T10:54:09.013Z,16.37
2018-01-07T10:56:37.795Z,14.27
2018-01-07T10:59:06.481Z,16.20
2018-01-07T11:01:40.568Z,13.10
2018-01-07T11:04:15.733Z,12.67
2018-01-07T11:06:44.451Z,13.60
2018-01-07T11:09:13.872Z,13.43
2018-01-07T11:11:43.318Z,13.27
2018-01-07T11:14:12.006Z,12.60
2018-01-07T11:16:40.690Z,12.63
2018-01-07T11:19:09.484Z,12.03
2018-01-07T11:21:38.165Z,11.57
2018-01-07T11:24:06.856Z,12.40
2018-01-07T11:26:35.495Z,12.00
2018-01-07T11:29:04.428Z,11.10
2018-01-07T11:31:33.012Z,12.07
2018-01-07T11:34:01.699Z,10.60
2018-01-07T11:36:30.483Z,9.83
2018-01-07T11:38:59.169Z,9.70
2018-01-07T11:41:27.854Z,9.93
2018-01-07T11:43:56.649Z,10.07
2018-01-07T11:46:25.289Z,12.57
2018-01-07T11:48:54.021Z,12.30
2018-01-07T11:51:22.853Z,11.27
2018-01-07T11:53:52.268Z,12.40
2018-01-07T11:56:21.001Z,10.50
2018-01-07T11:58:49.789Z,11.00
2018-01-07T12:01:19.025Z,11.03
2018-01-07T12:03:48.447Z,11.53
2018-01-07T12:06:17.336Z,9.63
2018-01-07T12:08:46.065Z,9.27
2018-01-07T12:11:14.749Z,12.77
2018-01-07T12:13:43.690Z,9.60
2018-01-07T12:16:13.142Z,9.47
2018-01-07T12:18:41.828Z,11.20
2018-01-07T12:21:10.769Z,11.53
2018-01-07T12:23:40.232Z,11.33
2018-01-07T12:26:08.902Z,12.80
2018-01-07T12:28:37.648Z,11.77
2018-01-07T12:31:07.119Z,14.03
2018-01-07T12:33:35.784Z,14.57
2018-01-07T12:36:04.575Z,12.97
2018-01-07T12:38:33.217Z,12.70
2018-01-07T12:41:02.666Z,12.03
2018-01-07T12:43:31.450Z,12.33
2018-01-07T12:46:00.136Z,13.63
2018-01-07T12:48:28.692Z,14.57
2018-01-07T12:50:57.608Z,12.60
2018-01-07T12:53:26.165Z,13.10
2018-01-07T12:55:54.878Z,12.57
2018-01-07T12:58:23.772Z,15.00
2018-01-07T13:00:52.458Z,15.27
2018-01-07T13:03:21.242Z,15.87
2018-01-07T13:05:49.958Z,15.83
2018-01-07T13:08:18.616Z,16.03
2018-01-07T13:10:47.299Z,16.63
2018-01-07T13:13:16.093Z,17.90
2018-01-07T13:15:44.764Z,16.87
2018-01-07T13:18:13.465Z,16.60
2018-01-07T13:20:42.250Z,18.50
2018-01-07T13:23:10.836Z,21.77
2018-01-07T13:25:39.392Z,27.93
2018-01-07T13:28:08.620Z,31.27
2018-01-07T13:30:37.396Z,46.03
2018-01-07T13:33:06.083Z,68.73
2018-01-07T13:35:34.831Z,75.87
2018-01-07T13:38:04.377Z,82.00
2018-01-07T13:40:33.061Z,61.13
2018-01-07T13:43:01.858Z,46.10
2018-01-07T13:45:30.433Z,41.47
2018-01-07T13:47:59.117Z,41.10
2018-01-07T13:50:28.110Z,40.37
2018-01-07T13:52:56.668Z,37.63
2018-01-07T13:55:25.382Z,33.17
2018-01-07T13:57:54.165Z,34.40
2018-01-07T14:00:22.852Z,38.87
2018-01-07T14:02:51.446Z,43.77
2018-01-07T14:05:20.432Z,43.80
2018-01-07T14:07:49.215Z,49.00
2018-01-07T14:10:17.862Z,50.93
2018-01-07T14:12:46.892Z,54.13
2018-01-07T14:15:15.577Z,54.53
2018-01-07T14:17:44.216Z,57.07
2018-01-07T14:20:13.678Z,103.37
2018-01-07T14:22:42.299Z,68.50
2018-01-07T14:25:11.695Z,55.93
2018-01-07T14:27:41.211Z,53.50
2018-01-07T14:30:10.658Z,62.77
2018-01-07T14:32:39.348Z,83.93
2018-01-07T14:35:08.042Z,62.47
2018-01-07T14:37:36.818Z,54.17
2018-01-07T14:40:05.504Z,87.83
2018-01-07T14:42:34.399Z,59.13
2018-01-07T14:45:03.140Z,58.83
2018-01-07T14:47:31.768Z,56.27
2018-01-07T14:50:00.596Z,56.13
2018-01-07T14:52:30.018Z,54.70
2018-01-07T14:54:58.747Z,53.47
2018-01-07T14:57:27.947Z,55.23
2018-01-07T14:59:56.536Z,55.33
2018-01-07T15:02:25.313Z,80.30
2018-01-07T15:04:54.133Z,140.83
2018-01-07T15:07:23.597Z,119.60
2018-01-07T15:09:52.291Z,101.03
2018-01-07T15:12:21.258Z,100.80
2018-01-07T15:14:49.873Z,100.93
2018-01-07T15:17:18.551Z,98.10
2018-01-07T15:19:47.290Z,97.80
2018-01-07T15:22:16.733Z,102.80
2018-01-07T15:24:45.429Z,108.93
2018-01-07T15:27:14.369Z,108.53
2018-01-07T15:29:43.788Z,116.47
2018-01-07T15:32:12.928Z,122.50
2018-01-07T15:34:42.114Z,148.93
2018-01-07T15:37:10.800Z,196.07
2018-01-07T15:39:39.439Z,157.63
2018-01-07T15:42:08.177Z,214.17
2018-01-07T15:44:36.965Z,188.40
2018-01-07T15:47:05.646Z,188.80
2018-01-07T15:49:34.435Z,208.03
2018-01-07T15:52:03.075Z,227.40
2018-01-07T15:54:31.774Z,255.20
2018-01-07T15:57:00.799Z,258.20
2018-01-07T15:59:29.427Z,243.80
2018-01-07T16:02:01.761Z,247.87
2018-01-07T16:04:38.488Z,259.13
2018-01-07T16:07:07.208Z,256.90
2018-01-07T16:09:35.900Z,276.10
2018-01-07T16:12:04.867Z,272.87
2018-01-07T16:14:33.676Z,339.33
2018-01-07T16:17:02.520Z,303.77
2018-01-07T16:19:32.177Z,298.67
2018-01-07T16:22:00.863Z,331.80
2018-01-07T16:24:29.416Z,379.60
2018-01-07T16:26:58.298Z,470.73
2018-01-07T16:29:27.019Z,509.30
2018-01-07T16:31:55.609Z,516.77
2018-01-07T16:34:24.494Z,510.27
2018-01-07T16:36:53.184Z,477.93
2018-01-07T16:39:21.810Z,494.43
2018-01-07T16:41:51.293Z,422.93
2018-01-07T16:44:19.859Z,397.10
2018-01-07T16:46:48.488Z,416.20
2018-01-07T16:49:18.028Z,460.30
2018-01-07T16:51:46.633Z,402.77
2018-01-07T16:54:15.411Z,350.17
2018-01-07T16:56:45.535Z,218.07
2018-01-07T16:59:14.156Z,166.83
2018-01-07T17:01:43.574Z,188.83
2018-01-07T17:04:12.413Z,187.50
2018-01-07T17:06:41.099Z,178.97
2018-01-07T17:09:09.785Z,170.60
2018-01-07T17:11:38.722Z,161.33
2018-01-07T17:14:08.113Z,142.67
2018-01-07T17:16:37.575Z,173.20
2018-01-07T17:19:06.326Z,126.30
2018-01-07T17:21:35.773Z,118.53
2018-01-07T17:24:04.510Z,113.80
2018-01-07T17:26:33.301Z,123.00
2018-01-07T17:29:02.747Z,116.67
2018-01-07T17:31:31.336Z,130.40
2018-01-07T17:34:00.328Z,131.23
2018-01-07T17:36:29.012Z,126.37
2018-01-07T17:38:57.592Z,126.97
2018-01-07T17:41:26.483Z,150.37
2018-01-07T17:43:55.552Z,170.77
2018-01-07T17:46:24.259Z,176.70
2018-01-07T17:48:53.056Z,204.37
2018-01-07T17:51:21.750Z,177.80
2018-01-07T17:53:50.427Z,174.13
2018-01-07T17:56:19.266Z,196.20
2018-01-07T17:58:47.995Z,197.67
2018-01-07T18:01:16.680Z,263.80
2018-01-07T18:03:45.475Z,182.40
2018-01-07T18:06:14.161Z,148.10
2018-01-07T18:08:42.836Z,157.50
2018-01-07T18:11:11.632Z,150.53
2018-01-07T18:13:40.318Z,102.80
2018-01-07T18:16:08.904Z,108.57
2018-01-07T18:18:37.787Z,116.37
2018-01-07T18:21:06.419Z,112.83
2018-01-07T18:23:35.885Z,111.83
2018-01-07T18:26:04.766Z,113.27
2018-01-07T18:28:33.450Z,108.37
2018-01-07T18:31:02.137Z,85.57
2018-01-07T18:33:30.831Z,81.23
2018-01-07T18:35:59.478Z,76.90
2018-01-07T18:38:28.194Z,72.33
2018-01-07T18:40:56.985Z,74.03
2018-01-07T18:43:25.569Z,73.93
2018-01-07T18:45:54.152Z,84.33
2018-01-07T18:48:23.047Z,137.90
2018-01-07T18:50:51.834Z,156.43
2018-01-07T18:53:20.401Z,146.77
2018-01-07T18:55:49.203Z,188.77
2018-01-07T18:58:17.889Z,243.40
2018-01-07T19:00:46.577Z,213.90
2018-01-07T19:03:15.468Z,219.23
2018-01-07T19:05:44.025Z,259.17
2018-01-07T19:08:12.683Z,300.50
2018-01-07T19:10:41.416Z,287.20
2018-01-07T19:13:10.004Z,244.50
2018-01-07T19:15:38.589Z,216.67
2018-01-07T19:18:07.728Z,145.43
2018-01-07T19:20:37.143Z,186.07
2018-01-07T19:23:05.767Z,205.00
2018-01-07T19:25:34.632Z,177.40
2018-01-07T19:28:03.348Z,312.70
2018-01-07T19:30:32.033Z,197.67
2018-01-07T19:33:01.182Z,195.50
2018-01-07T19:35:30.500Z,203.57
2018-01-07T19:37:59.094Z,188.43
2018-01-07T19:40:27.862Z,147.37
2018-01-07T19:42:56.420Z,113.10
2018-01-07T19:45:25.846Z,130.20
2018-01-07T19:47:54.883Z,186.13
2018-01-07T19:50:23.460Z,177.23
2018-01-07T19:52:52.145Z,142.17
2018-01-07T19:55:21.347Z,113.03
2018-01-07T19:57:49.989Z,135.60
2018-01-07T20:00:18.705Z,97.20
2018-01-07T20:02:47.611Z,109.50
2018-01-07T20:05:16.237Z,87.60
2018-01-07T20:07:45.633Z,77.87
2018-01-07T20:10:15.252Z,76.10
2018-01-07T20:12:44.703Z,85.03
2018-01-07T20:15:13.387Z,88.10
2018-01-07T20:17:42.076Z,85.50
2018-01-07T20:20:10.731Z,92.77
2018-01-07T20:22:39.415Z,96.40
2018-01-07T20:25:08.408Z,87.50
2018-01-07T20:27:37.123Z,89.27
2018-01-07T20:30:05.769Z,91.87
2018-01-07T20:32:34.761Z,79.23
2018-01-07T20:35:03.491Z,80.83
2018-01-07T20:37:32.081Z,77.77
2018-01-07T20:40:00.789Z,76.17
2018-01-07T20:42:30.205Z,98.90
2018-01-07T20:44:58.897Z,102.83
2018-01-07T20:47:28.417Z,101.03
2018-01-07T20:49:57.139Z,101.13
2018-01-07T20:52:25.933Z,106.17
2018-01-07T20:54:54.671Z,87.93
2018-01-07T20:57:24.120Z,38.10
2018-01-07T20:59:52.804Z,25.23
2018-01-07T21:02:21.649Z,63.93
2018-01-07T21:04:51.096Z,41.43
2018-01-07T21:07:19.990Z,39.07
2018-01-07T21:09:48.983Z,33.70
2018-01-07T21:12:17.768Z,30.80
2018-01-07T21:14:46.563Z,36.23
2018-01-07T21:17:15.304Z,30.17
2018-01-07T21:19:44.032Z,48.50
2018-01-07T21:22:12.719Z,48.93
2018-01-07T21:24:41.714Z,42.93
2018-01-07T21:27:10.399Z,44.97
2018-01-07T21:29:39.043Z,45.50
2018-01-07T21:32:07.772Z,48.23
2018-01-07T21:34:36.455Z,47.03
2018-01-07T21:37:05.142Z,39.33
2018-01-07T21:39:34.115Z,41.43
2018-01-07T21:42:02.782Z,48.10
2018-01-07T21:44:31.506Z,49.87
2018-01-07T21:47:00.442Z,45.63
2018-01-07T21:49:29.862Z,43.57
2018-01-07T21:51:58.583Z,48.20
2018-01-07T21:54:27.378Z,47.73
2018-01-07T21:56:55.956Z,38.83
2018-01-07T21:59:24.750Z,41.57
2018-01-07T22:02:11.494Z,56.50
2018-01-07T22:04:55.705Z,69.27
2018-01-07T22:07:24.908Z,56.27
2018-01-07T22:09:53.547Z,50.40
2018-01-07T22:12:22.277Z,48.87
2018-01-07T22:14:50.964Z,49.40
2018-01-07T22:17:19.650Z,50.70
2018-01-07T22:19:48.421Z,51.83
2018-01-07T22:22:17.189Z,57.90
2018-01-07T22:24:45.904Z,61.00
2018-01-07T22:27:14.590Z,60.43
2018-01-07T22:29:43.542Z,65.67
2018-01-07T22:32:12.269Z,70.93
2018-01-07T22:34:41.064Z,74.87
2018-01-07T22:37:09.750Z,86.93
2018-01-07T22:39:38.435Z,110.73
2018-01-07T22:42:07.281Z,112.13
2018-01-07T22:44:35.974Z,114.07
2018-01-07T22:47:04.696Z,100.80
2018-01-07T22:49:33.333Z,89.80
2018-01-07T22:52:02.027Z,100.43
2018-01-07T22:54:30.749Z,102.93
2018-01-07T22:56:59.387Z,90.23
2018-01-07T22:59:28.121Z,90.60
2018-01-07T23:01:56.808Z,93.40
2018-01-07T23:04:25.490Z,94.50
2018-01-07T23:06:54.458Z,96.27
2018-01-07T23:09:23.170Z,97.10
2018-01-07T23:11:51.856Z,91.30
2018-01-07T23:14:20.599Z,93.03
2018-01-07T23:16:49.951Z,94.47
2018-01-07T23:19:18.636Z,88.10
2018-01-07T23:21:47.444Z,92.73
2018-01-07T23:24:16.205Z,88.00
2018-01-07T23:26:44.892Z,95.03
2018-01-07T23:29:13.842Z,90.67
2018-01-07T23:31:42.571Z,88.20
2018-01-07T23:34:11.156Z,89.60
2018-01-07T23:36:39.895Z,91.10
2018-01-07T23:39:08.588Z,89.97
2018-01-07T23:41:37.314Z,93.10
2018-01-07T23:44:07.130Z,91.43
2018-01-07T23:46:35.915Z,89.00
2018-01-07T23:49:04.600Z,88.07
2018-01-07T23:51:33.752Z,90.00
2018-01-07T23:54:03.205Z,90.40
2018-01-07T23:56:31.885Z,86.83
2018-01-07T23:59:00.880Z,93.17
